createdAt,value
2023-01-20T00:01:43.171Z,63.80
2023-01-20T00:04:11.279Z,70.07
2023-01-20T00:06:39.305Z,70.53
2023-01-20T00:09:07.352Z,72.65
2023-01-20T00:11:35.371Z,68.18
2023-01-20T00:14:03.389Z,63.45
2023-01-20T00:16:34.814Z,72.97
2023-01-20T00:19:03.282Z,65.57
2023-01-20T00:21:31.250Z,73.70
2023-01-20T00:23:58.961Z,70.22
2023-01-20T00:26:27.032Z,67.32
2023-01-20T00:28:55.916Z,70.53
2023-01-20T00:31:27.167Z,67.15
2023-01-20T00:33:57.916Z,74.13
2023-01-20T00:36:27.802Z,74.63
2023-01-20T00:38:55.449Z,74.50
2023-01-20T00:41:23.918Z,74.72
2023-01-20T00:43:51.629Z,69.00
2023-01-20T00:46:19.724Z,72.47
2023-01-20T00:48:47.417Z,70.57
2023-01-20T00:51:15.740Z,73.50
2023-01-20T00:53:43.354Z,69.82
2023-01-20T00:56:11.316Z,73.72
2023-01-20T00:58:38.992Z,76.80
2023-01-20T01:01:07.189Z,75.80
2023-01-20T01:03:34.874Z,64.97
2023-01-20T01:06:07.358Z,70.43
2023-01-20T01:08:35.662Z,75.40
2023-01-20T01:11:04.227Z,73.15
2023-01-20T01:13:32.972Z,71.55
2023-01-20T01:16:01.357Z,69.22
2023-01-20T01:18:29.142Z,66.03
2023-01-20T01:20:57.429Z,70.63
2023-01-20T01:23:25.125Z,69.18
2023-01-20T01:25:53.044Z,69.00
2023-01-20T01:28:20.716Z,60.88
2023-01-20T01:30:48.699Z,64.03
2023-01-20T01:33:16.402Z,68.20
2023-01-20T01:35:44.357Z,66.63
2023-01-20T01:38:11.968Z,67.50
2023-01-20T01:40:39.881Z,60.22
2023-01-20T01:43:25.954Z,58.60
2023-01-20T01:45:54.632Z,58.28
2023-01-20T01:48:31.591Z,68.95
2023-01-20T01:51:05.568Z,65.10
2023-01-20T01:53:39.924Z,64.65
2023-01-20T01:56:08.710Z,67.47
2023-01-20T01:58:41.600Z,65.50
2023-01-20T02:01:10.099Z,66.97
2023-01-20T02:04:07.289Z,65.30
2023-01-20T02:06:38.431Z,62.65
2023-01-20T02:09:06.975Z,66.57
2023-01-20T02:11:48.605Z,72.65
2023-01-20T02:14:19.086Z,65.25
2023-01-20T02:17:21.021Z,68.82
2023-01-20T02:20:10.021Z,69.20
2023-01-20T02:23:08.866Z,69.25
2023-01-20T02:25:54.426Z,71.97
2023-01-20T02:28:30.999Z,65.30
2023-01-20T02:31:52.498Z,70.25
2023-01-20T02:34:38.101Z,70.88
2023-01-20T02:37:21.364Z,74.63
2023-01-20T02:40:19.927Z,75.15
2023-01-20T02:43:16.044Z,71.43
2023-01-20T02:45:57.618Z,74.25
2023-01-20T02:48:55.878Z,79.40
2023-01-20T02:51:31.826Z,76.55
2023-01-20T02:54:05.994Z,71.93
2023-01-20T02:56:36.649Z,64.18
2023-01-20T02:59:11.066Z,70.25
2023-01-20T03:01:58.043Z,69.95
2023-01-20T03:04:30.862Z,69.95
2023-01-20T03:07:00.390Z,70.30
2023-01-20T03:09:35.749Z,66.28
2023-01-20T03:12:11.778Z,70.25
2023-01-20T03:14:39.687Z,69.15
2023-01-20T03:17:07.670Z,69.65
2023-01-20T03:19:35.991Z,72.40
2023-01-20T03:22:03.995Z,66.03
2023-01-20T03:24:34.424Z,73.95
2023-01-20T03:27:02.320Z,69.53
2023-01-20T03:29:30.705Z,78.38
2023-01-20T03:32:01.449Z,64.20
2023-01-20T03:34:33.297Z,66.43
2023-01-20T03:37:02.581Z,73.22
2023-01-20T03:39:31.498Z,73.72
2023-01-20T03:42:07.329Z,64.35
2023-01-20T03:44:38.050Z,63.40
2023-01-20T03:47:17.891Z,61.22
2023-01-20T03:50:06.616Z,59.03
2023-01-20T03:52:49.733Z,65.05
2023-01-20T03:55:26.680Z,69.05
2023-01-20T03:58:05.041Z,74.70
2023-01-20T04:00:36.593Z,62.67
2023-01-20T04:03:11.444Z,66.63
2023-01-20T04:05:40.253Z,68.88
2023-01-20T04:08:11.466Z,68.55
2023-01-20T04:10:42.828Z,65.75
2023-01-20T04:13:10.963Z,68.78
2023-01-20T04:15:42.204Z,71.38
2023-01-20T04:18:17.749Z,72.25
2023-01-20T04:20:50.674Z,71.32
2023-01-20T04:23:27.648Z,67.50
2023-01-20T04:25:55.415Z,66.10
2023-01-20T04:28:23.341Z,73.18
2023-01-20T04:30:51.247Z,68.43
2023-01-20T04:33:19.415Z,75.50
2023-01-20T04:35:47.130Z,76.97
2023-01-20T04:38:15.193Z,81.38
2023-01-20T04:40:42.934Z,74.75
2023-01-20T04:43:12.138Z,71.15
2023-01-20T04:45:42.067Z,73.32
2023-01-20T04:48:10.366Z,75.80
2023-01-20T04:50:41.790Z,74.22
2023-01-20T04:53:16.822Z,71.50
2023-01-20T04:55:44.536Z,66.65
2023-01-20T04:58:12.634Z,66.10
2023-01-20T05:00:41.424Z,72.60
2023-01-20T05:03:10.444Z,63.22
2023-01-20T05:05:38.527Z,67.60
2023-01-20T05:08:06.589Z,65.50
2023-01-20T05:10:34.818Z,65.85
2023-01-20T05:13:03.053Z,65.95
2023-01-20T05:15:30.674Z,61.92
2023-01-20T05:17:58.546Z,64.80
2023-01-20T05:20:26.298Z,63.80
2023-01-20T05:22:54.247Z,62.58
2023-01-20T05:25:22.018Z,60.20
2023-01-20T05:27:50.012Z,59.40
2023-01-20T05:30:17.784Z,66.97
2023-01-20T05:32:49.063Z,66.20
2023-01-20T05:35:17.314Z,63.90
2023-01-20T05:37:45.443Z,57.65
2023-01-20T05:40:13.357Z,62.33
2023-01-20T05:42:41.330Z,70.13
2023-01-20T05:45:09.409Z,59.80
2023-01-20T05:47:37.508Z,63.22
2023-01-20T05:50:05.952Z,63.90
2023-01-20T05:52:33.879Z,67.47
2023-01-20T05:55:01.588Z,65.07
2023-01-20T05:57:29.529Z,61.45
2023-01-20T05:59:57.249Z,65.50
2023-01-20T06:02:25.180Z,62.78
2023-01-20T06:04:53.074Z,53.78
2023-01-20T06:07:21.128Z,59.63
2023-01-20T06:09:48.859Z,78.30
2023-01-20T06:12:16.871Z,59.70
2023-01-20T06:14:44.546Z,62.50
2023-01-20T06:17:12.507Z,60.22
2023-01-20T06:19:40.246Z,66.97
2023-01-20T06:22:12.915Z,65.32
2023-01-20T06:24:41.086Z,58.28
2023-01-20T06:27:09.423Z,62.10
2023-01-20T06:29:37.213Z,67.95
2023-01-20T06:32:05.537Z,66.38
2023-01-20T06:34:33.420Z,66.05
2023-01-20T06:37:02.319Z,76.65
2023-01-20T06:39:30.146Z,68.32
2023-01-20T06:41:59.434Z,72.40
2023-01-20T06:44:27.846Z,74.25
2023-01-20T06:46:58.497Z,76.88
2023-01-20T06:49:26.564Z,63.55
2023-01-20T06:51:54.721Z,63.88
2023-01-20T06:54:22.558Z,67.82
2023-01-20T06:56:50.603Z,69.25
2023-01-20T06:59:33.685Z,78.30
2023-01-20T07:02:01.766Z,85.13
2023-01-20T07:04:29.487Z,76.55
2023-01-20T07:06:57.356Z,86.80
2023-01-20T07:09:25.193Z,74.93
2023-01-20T07:11:53.270Z,74.10
2023-01-20T07:14:21.115Z,72.78
2023-01-20T07:16:49.260Z,77.15
2023-01-20T07:19:17.028Z,71.38
2023-01-20T07:21:45.223Z,74.25
2023-01-20T07:24:13.047Z,69.40
2023-01-20T07:26:41.013Z,77.80
2023-01-20T07:29:08.641Z,78.88
2023-01-20T07:34:10.769Z,73.00
2023-01-20T07:36:38.681Z,79.00
2023-01-20T07:39:06.378Z,74.65
2023-01-20T07:41:34.469Z,72.75
2023-01-20T07:44:02.825Z,75.82
2023-01-20T07:46:30.899Z,72.68
2023-01-20T07:48:58.532Z,78.97
2023-01-20T07:51:26.479Z,87.10
2023-01-20T07:53:54.248Z,74.10
2023-01-20T07:56:24.602Z,72.90
2023-01-20T07:58:53.779Z,72.82
2023-01-20T08:01:23.244Z,75.80
2023-01-20T08:03:51.595Z,69.35
2023-01-20T08:06:22.892Z,68.72
2023-01-20T08:08:51.324Z,76.05
2023-01-20T08:11:20.866Z,80.50
2023-01-20T08:13:48.897Z,72.75
2023-01-20T08:16:18.103Z,65.15
2023-01-20T08:18:46.560Z,74.78
2023-01-20T08:21:23.974Z,62.80
2023-01-20T08:23:52.404Z,62.30
2023-01-20T08:26:20.587Z,65.93
2023-01-20T08:28:48.620Z,62.80
2023-01-20T08:31:19.516Z,65.10
2023-01-20T08:33:48.210Z,64.97
2023-01-20T08:36:19.632Z,65.60
2023-01-20T08:38:48.365Z,65.40
2023-01-20T08:41:23.365Z,70.82
2023-01-20T08:43:51.299Z,61.17
2023-01-20T08:46:21.235Z,63.28
2023-01-20T08:48:50.173Z,65.07
2023-01-20T08:51:28.274Z,59.15
2023-01-20T08:53:56.418Z,61.75
2023-01-20T08:56:24.368Z,53.65
2023-01-20T08:58:52.261Z,56.70
2023-01-20T09:01:22.865Z,51.10
2023-01-20T09:04:04.438Z,47.35
2023-01-20T09:06:42.814Z,56.92
2023-01-20T09:09:11.133Z,61.15
2023-01-20T09:11:40.104Z,57.92
2023-01-20T09:14:07.774Z,57.13
2023-01-20T09:16:35.831Z,53.42
2023-01-20T09:19:03.630Z,59.30
2023-01-20T09:21:31.606Z,64.30
2023-01-20T09:23:59.877Z,65.50
2023-01-20T09:26:35.734Z,58.60
2023-01-20T09:29:09.712Z,71.53
2023-01-20T09:31:40.758Z,67.15
2023-01-20T09:34:08.601Z,61.50
2023-01-20T09:36:36.576Z,66.35
2023-01-20T09:39:22.833Z,66.82
2023-01-20T09:42:20.234Z,60.70
2023-01-20T09:44:53.951Z,58.58
2023-01-20T09:50:56.351Z,53.88
2023-01-20T09:53:42.835Z,51.67
2023-01-20T09:56:18.378Z,52.58
2023-01-20T09:58:58.203Z,54.55
2023-01-20T10:01:46.192Z,51.30
2023-01-20T10:04:41.825Z,56.08
2023-01-20T10:07:14.901Z,61.72
2023-01-20T10:10:00.667Z,53.30
2023-01-20T10:12:36.583Z,51.10
2023-01-20T10:15:26.564Z,52.97
2023-01-20T10:18:09.991Z,56.20
2023-01-20T10:20:50.413Z,51.33
2023-01-20T10:23:29.488Z,48.25
2023-01-20T10:26:19.564Z,59.83
2023-01-20T10:29:05.346Z,51.90
2023-01-20T10:31:43.170Z,54.45
2023-01-20T10:34:18.735Z,50.17
2023-01-20T10:36:58.750Z,46.22
2023-01-20T10:39:35.020Z,52.90
2023-01-20T10:42:10.258Z,56.90
2023-01-20T10:44:38.015Z,58.42
2023-01-20T10:47:14.955Z,61.88
2023-01-20T10:50:00.295Z,61.22
2023-01-20T10:52:40.049Z,55.75
2023-01-20T10:55:25.517Z,54.22
2023-01-20T10:58:09.322Z,55.90
2023-01-20T11:00:37.209Z,54.42
2023-01-20T11:03:06.373Z,51.42
2023-01-20T11:05:38.234Z,46.80
2023-01-20T11:08:18.302Z,50.45
2023-01-20T11:10:49.390Z,49.63
2023-01-20T11:13:17.664Z,45.20
2023-01-20T11:15:48.374Z,45.53
2023-01-20T11:18:16.294Z,46.63
2023-01-20T11:21:05.453Z,47.97
2023-01-20T11:23:39.219Z,58.35
2023-01-20T11:26:37.503Z,58.40
2023-01-20T11:29:11.505Z,51.58
2023-01-20T11:31:45.556Z,46.20
2023-01-20T11:34:48.962Z,49.13
2023-01-20T11:37:17.945Z,49.95
2023-01-20T11:40:01.779Z,51.45
2023-01-20T11:42:47.255Z,46.30
2023-01-20T11:45:37.507Z,56.38
2023-01-20T11:48:15.850Z,52.88
2023-01-20T11:50:57.532Z,55.10
2023-01-20T11:53:31.788Z,53.88
2023-01-20T11:56:21.070Z,50.30
2023-01-20T11:59:01.901Z,54.97
2023-01-20T12:01:49.464Z,57.65
2023-01-20T12:04:56.586Z,48.92
2023-01-20T12:07:46.450Z,51.33
2023-01-20T12:10:24.671Z,59.63
2023-01-20T12:13:10.997Z,62.80
2023-01-20T12:15:53.110Z,64.53
2023-01-20T12:18:37.524Z,57.70
2023-01-20T12:24:00.230Z,53.45
2023-01-20T12:26:29.361Z,53.03
2023-01-20T12:29:12.414Z,55.65
2023-01-20T12:31:40.459Z,51.40
2023-01-20T12:34:17.457Z,50.97
2023-01-20T12:37:03.739Z,48.45
2023-01-20T12:39:59.787Z,47.80
2023-01-20T12:42:27.375Z,54.20
2023-01-20T12:45:16.132Z,47.97
2023-01-20T12:48:21.689Z,51.78
2023-01-20T12:50:55.578Z,51.92
2023-01-20T12:54:02.532Z,49.30
2023-01-20T12:56:50.966Z,50.58
2023-01-20T12:59:48.972Z,50.80
2023-01-20T13:02:18.594Z,42.85
2023-01-20T13:05:05.437Z,39.60
2023-01-20T13:07:48.746Z,39.40
2023-01-20T13:10:50.276Z,35.30
2023-01-20T13:13:57.224Z,33.00
2023-01-20T13:16:45.730Z,36.03
2023-01-20T13:19:34.244Z,32.97
2023-01-20T13:22:18.895Z,38.17
2023-01-20T13:24:52.431Z,36.38
2023-01-20T13:27:35.755Z,29.45
2023-01-20T13:30:08.303Z,30.00
2023-01-20T13:32:37.295Z,30.67
2023-01-20T13:35:42.357Z,27.13
2023-01-20T13:41:03.317Z,32.15
2023-01-20T13:43:47.885Z,33.88
2023-01-20T13:46:16.981Z,36.47
2023-01-20T13:49:12.011Z,35.80
2023-01-20T13:51:43.988Z,38.30
2023-01-20T13:54:29.042Z,53.90
2023-01-20T13:57:23.351Z,32.33
2023-01-20T13:59:51.636Z,25.48
2023-01-20T14:02:21.223Z,37.88
2023-01-20T14:04:49.576Z,31.83
2023-01-20T14:07:30.012Z,47.83
2023-01-20T14:09:59.714Z,34.10
2023-01-20T14:12:28.524Z,34.30
2023-01-20T14:14:56.249Z,26.15
2023-01-20T14:17:25.663Z,30.38
2023-01-20T14:19:55.692Z,24.98
2023-01-20T14:22:32.497Z,27.08
2023-01-20T14:25:01.945Z,31.63
2023-01-20T14:27:34.120Z,31.73
2023-01-20T14:30:26.323Z,35.28
2023-01-20T14:32:54.643Z,28.10
2023-01-20T14:35:27.505Z,32.10
2023-01-20T14:37:55.805Z,32.00
2023-01-20T14:40:34.879Z,34.38
2023-01-20T14:43:22.644Z,35.58
2023-01-20T14:45:51.907Z,39.70
2023-01-20T14:48:33.492Z,35.55
2023-01-20T14:51:04.285Z,37.08
2023-01-20T14:53:32.713Z,39.47
2023-01-20T14:56:09.683Z,37.33
2023-01-20T14:58:49.444Z,34.63
2023-01-20T15:01:24.057Z,35.05
2023-01-20T15:03:59.731Z,39.90
2023-01-20T15:06:27.699Z,37.40
2023-01-20T15:09:06.463Z,33.50
2023-01-20T15:11:36.470Z,35.50
2023-01-20T15:14:08.784Z,35.67
2023-01-20T15:16:36.503Z,29.88
2023-01-20T15:19:16.908Z,28.77
2023-01-20T15:21:59.068Z,30.80
2023-01-20T15:24:37.642Z,32.75
2023-01-20T15:27:24.849Z,28.60
2023-01-20T15:30:17.242Z,30.80
2023-01-20T15:32:46.657Z,32.53
2023-01-20T15:35:16.717Z,28.63
2023-01-20T15:37:44.918Z,24.27
2023-01-20T15:40:20.820Z,26.10
2023-01-20T15:42:50.382Z,31.63
2023-01-20T15:45:19.307Z,34.30
2023-01-20T15:47:47.563Z,41.30
2023-01-20T15:50:23.153Z,38.90
2023-01-20T15:52:51.513Z,38.83
2023-01-20T15:55:20.155Z,36.70
2023-01-20T15:57:51.825Z,36.67
2023-01-20T16:00:22.698Z,26.73
2023-01-20T16:02:50.681Z,40.25
2023-01-20T16:05:18.913Z,38.85
2023-01-20T16:07:47.756Z,29.40
2023-01-20T16:10:18.421Z,34.67
2023-01-20T16:12:47.925Z,31.75
2023-01-20T16:15:18.116Z,32.08
2023-01-20T16:17:46.081Z,30.70
2023-01-20T16:20:26.122Z,30.60
2023-01-20T16:22:54.449Z,26.73
2023-01-20T16:25:22.697Z,28.98
2023-01-20T16:27:50.854Z,26.23
2023-01-20T16:30:21.870Z,24.45
2023-01-20T16:32:50.076Z,24.27
2023-01-20T16:35:20.393Z,24.67
2023-01-20T16:37:48.545Z,27.48
2023-01-20T16:40:20.328Z,22.65
2023-01-20T16:42:48.426Z,26.67
2023-01-20T16:45:23.559Z,20.75
2023-01-20T16:47:51.734Z,22.00
2023-01-20T16:50:20.347Z,23.58
2023-01-20T16:52:48.637Z,22.98
2023-01-20T16:55:16.747Z,21.73
2023-01-20T16:57:44.530Z,22.42
2023-01-20T17:00:13.110Z,24.85
2023-01-20T17:02:40.800Z,25.88
2023-01-20T17:05:09.733Z,22.80
2023-01-20T17:07:37.471Z,23.77
2023-01-20T17:10:05.827Z,22.95
2023-01-20T17:12:33.799Z,25.55
2023-01-20T17:15:01.756Z,22.52
2023-01-20T17:17:29.436Z,24.50
2023-01-20T17:19:57.470Z,23.05
2023-01-20T17:22:25.414Z,23.08
2023-01-20T17:24:53.590Z,23.88
2023-01-20T17:27:21.293Z,24.90
2023-01-20T17:29:49.388Z,23.00
2023-01-20T17:32:18.146Z,28.17
2023-01-20T17:34:47.358Z,33.05
2023-01-20T17:37:15.050Z,25.98
2023-01-20T17:39:42.985Z,40.95
2023-01-20T17:42:10.680Z,29.13
2023-01-20T17:44:38.858Z,27.83
2023-01-20T17:47:07.710Z,25.50
2023-01-20T17:49:35.691Z,30.23
2023-01-20T17:52:03.471Z,25.27
2023-01-20T17:54:31.753Z,23.00
2023-01-20T17:56:59.388Z,25.20
2023-01-20T17:59:27.465Z,23.52
2023-01-20T18:01:55.426Z,25.20
2023-01-20T18:04:23.435Z,35.05
2023-01-20T18:06:51.212Z,29.52
2023-01-20T18:09:19.564Z,30.23
2023-01-20T18:11:47.520Z,24.52
2023-01-20T18:14:15.459Z,30.95
2023-01-20T18:16:43.505Z,31.92
2023-01-20T18:19:14.007Z,31.20
2023-01-20T18:21:43.847Z,32.15
2023-01-20T18:24:13.373Z,31.05
2023-01-20T18:26:44.992Z,32.65
2023-01-20T18:29:16.457Z,34.30
2023-01-20T18:31:46.552Z,35.15
2023-01-20T18:34:17.831Z,34.13
2023-01-20T18:36:46.908Z,65.57
2023-01-20T18:39:23.357Z,30.50
2023-01-20T18:41:51.944Z,33.20
2023-01-20T18:44:21.205Z,62.58
2023-01-20T18:46:49.035Z,76.65
2023-01-20T18:49:17.793Z,44.35
2023-01-20T18:51:45.548Z,41.67
2023-01-20T18:54:17.530Z,43.90
2023-01-20T18:56:45.329Z,38.30
2023-01-20T18:59:14.032Z,31.63
2023-01-20T19:01:42.197Z,29.60
2023-01-20T19:04:12.122Z,22.42
2023-01-20T19:06:42.279Z,22.27
2023-01-20T19:09:11.451Z,25.50
2023-01-20T19:11:41.010Z,28.95
2023-01-20T19:14:13.128Z,22.83
2023-01-20T19:16:49.384Z,24.63
2023-01-20T19:19:18.981Z,19.73
2023-01-20T19:21:50.249Z,23.98
2023-01-20T19:24:20.645Z,19.75
2023-01-20T19:26:48.579Z,23.73
2023-01-20T19:29:17.541Z,24.58
2023-01-20T19:31:45.494Z,25.60
2023-01-20T19:34:13.677Z,22.17
2023-01-20T19:36:41.498Z,21.60
2023-01-20T19:39:09.566Z,25.02
2023-01-20T19:41:38.918Z,20.25
2023-01-20T19:44:07.889Z,19.75
2023-01-20T19:46:37.555Z,15.10
2023-01-20T19:49:05.783Z,19.75
2023-01-20T19:51:33.674Z,20.70
2023-01-20T19:54:02.514Z,21.48
2023-01-20T19:56:35.436Z,19.52
2023-01-20T19:59:06.003Z,16.70
2023-01-20T20:01:35.805Z,20.42
2023-01-20T20:04:13.047Z,18.38
2023-01-20T20:06:46.202Z,50.08
2023-01-20T20:09:26.028Z,57.65
2023-01-20T20:11:54.311Z,40.72
2023-01-20T20:14:23.232Z,25.27
2023-01-20T20:16:51.069Z,21.42
2023-01-20T20:19:20.431Z,22.95
2023-01-20T20:21:48.551Z,20.65
2023-01-20T20:24:18.035Z,21.17
2023-01-20T20:26:46.779Z,16.45
2023-01-20T20:29:16.676Z,19.05
2023-01-20T20:31:44.852Z,22.48
2023-01-20T20:34:15.954Z,20.58
2023-01-20T20:36:44.119Z,25.77
2023-01-20T20:39:16.949Z,21.75
2023-01-20T20:41:45.381Z,22.75
2023-01-20T20:44:13.378Z,25.45
2023-01-20T20:46:41.503Z,23.83
2023-01-20T20:49:15.239Z,35.58
2023-01-20T20:51:43.302Z,28.33
2023-01-20T20:54:14.001Z,23.48
2023-01-20T20:56:41.742Z,21.42
2023-01-20T20:59:10.613Z,20.35
2023-01-20T21:01:38.663Z,18.83
2023-01-20T21:04:06.779Z,18.05
2023-01-20T21:06:34.879Z,21.92
2023-01-20T21:09:03.065Z,25.90
2023-01-20T21:11:31.732Z,25.42
2023-01-20T21:13:59.833Z,19.60
2023-01-20T21:16:28.217Z,22.75
2023-01-20T21:18:58.314Z,17.67
2023-01-20T21:21:29.080Z,20.65
2023-01-20T21:23:59.199Z,19.42
2023-01-20T21:26:30.289Z,18.90
2023-01-20T21:29:02.062Z,20.42
2023-01-20T21:31:31.546Z,26.38
2023-01-20T21:34:00.467Z,20.52
2023-01-20T21:36:30.293Z,21.98
2023-01-20T21:38:59.452Z,17.52
2023-01-20T21:41:27.112Z,22.30
2023-01-20T21:44:14.353Z,19.40
2023-01-20T21:46:42.225Z,16.33
2023-01-20T21:49:29.058Z,18.27
2023-01-20T21:52:16.038Z,23.08
2023-01-20T21:54:45.409Z,24.63
2023-01-20T21:57:14.697Z,26.15
2023-01-20T21:59:43.121Z,29.77
2023-01-20T22:02:13.558Z,19.48
2023-01-20T22:04:42.302Z,23.73
2023-01-20T22:07:10.573Z,24.45
2023-01-20T22:09:39.300Z,23.45
2023-01-20T22:12:07.535Z,28.17
2023-01-20T22:14:35.592Z,31.98
2023-01-20T22:17:03.734Z,26.75
2023-01-20T22:19:31.966Z,28.25
2023-01-20T22:22:01.468Z,27.15
2023-01-20T22:24:29.879Z,25.92
2023-01-20T22:26:58.266Z,28.45
2023-01-20T22:29:26.339Z,24.58
2023-01-20T22:31:55.017Z,22.42
2023-01-20T22:34:23.356Z,22.05
2023-01-20T22:36:51.011Z,19.67
2023-01-20T22:39:19.076Z,22.20
2023-01-20T22:41:46.800Z,15.75
2023-01-20T22:44:14.995Z,23.80
2023-01-20T22:46:42.659Z,22.02
2023-01-20T22:49:11.278Z,24.27
2023-01-20T22:51:38.957Z,24.02
2023-01-20T22:54:10.628Z,22.83
2023-01-20T22:56:39.195Z,21.95
2023-01-20T22:59:07.279Z,21.17
2023-01-20T23:01:36.076Z,21.83
2023-01-20T23:04:06.180Z,23.50
2023-01-20T23:06:35.803Z,23.30
2023-01-20T23:09:07.382Z,21.80
2023-01-20T23:11:36.478Z,23.25
2023-01-20T23:14:04.919Z,23.88
2023-01-20T23:16:32.751Z,22.17
2023-01-20T23:19:01.193Z,19.58
2023-01-20T23:21:29.115Z,18.10
2023-01-20T23:23:57.273Z,18.38
2023-01-20T23:26:27.351Z,20.40
2023-01-20T23:28:56.225Z,25.65
2023-01-20T23:31:25.887Z,18.63
2023-01-20T23:33:54.731Z,21.40
2023-01-20T23:36:25.539Z,13.70
2023-01-20T23:38:55.006Z,21.38
2023-01-20T23:41:23.229Z,22.73
2023-01-20T23:43:51.305Z,21.08
2023-01-20T23:46:19.096Z,26.52
2023-01-20T23:48:47.846Z,20.08
2023-01-20T23:51:16.095Z,22.23
2023-01-20T23:53:44.247Z,25.83
2023-01-20T23:56:21.678Z,28.85
2023-01-20T23:58:50.200Z,27.30
